createdAt,value
2018-06-19T00:02:31.682Z,30.30
2018-06-19T00:05:04.656Z,30.10
2018-06-19T00:07:37.734Z,29.70
2018-06-19T00:10:10.996Z,29.70
2018-06-19T00:12:44.830Z,29.60
2018-06-19T00:15:17.913Z,29.60
2018-06-19T00:17:51.193Z,29.40
2018-06-19T00:20:24.275Z,29.20
2018-06-19T00:22:57.356Z,29.10
2018-06-19T00:25:30.331Z,29.00
2018-06-19T00:28:03.171Z,29.00
2018-06-19T00:30:36.279Z,29.00
2018-06-19T00:35:54.888Z,29.00
2018-06-19T00:38:28.003Z,29.10
2018-06-19T00:41:01.064Z,29.20
2018-06-19T00:43:35.052Z,29.40
2018-06-19T00:46:09.078Z,29.70
2018-06-19T00:48:42.055Z,30.10
2018-06-19T00:51:15.021Z,30.50
2018-06-19T00:53:48.512Z,30.90
2018-06-19T00:56:57.073Z,31.30
2018-06-19T00:59:30.297Z,31.60
2018-06-19T01:02:04.730Z,31.80
2018-06-19T01:04:38.839Z,32.30
2018-06-19T01:07:13.225Z,32.40
2018-06-19T01:09:47.553Z,32.20
2018-06-19T01:12:20.654Z,32.80
2018-06-19T01:14:53.550Z,33.40
2018-06-19T01:17:27.787Z,33.80
2018-06-19T01:20:01.689Z,33.80
2018-06-19T01:22:34.856Z,33.80
2018-06-19T01:25:08.046Z,33.10
2018-06-19T01:27:41.515Z,32.40
2018-06-19T01:30:14.571Z,32.20
2018-06-19T01:32:47.706Z,31.60
2018-06-19T01:35:23.786Z,31.30
2018-06-19T01:37:57.020Z,31.60
2018-06-19T01:40:31.068Z,31.70
2018-06-19T01:43:04.889Z,31.70
2018-06-19T01:45:38.247Z,32.60
2018-06-19T01:48:11.451Z,33.30
2018-06-19T01:50:44.723Z,33.30
2018-06-19T01:53:17.788Z,33.50
2018-06-19T01:55:50.880Z,33.60
2018-06-19T01:58:24.071Z,33.60
2018-06-19T02:00:57.070Z,33.70
2018-06-19T02:03:30.141Z,33.70
2018-06-19T02:06:03.048Z,33.60
2018-06-19T02:08:36.162Z,33.60
2018-06-19T02:11:09.222Z,33.40
2018-06-19T02:13:42.356Z,33.70
2018-06-19T02:16:15.509Z,33.80
2018-06-19T02:18:48.731Z,32.90
2018-06-19T02:21:21.899Z,33.70
2018-06-19T02:23:54.962Z,34.10
2018-06-19T02:26:28.158Z,34.30
2018-06-19T02:29:01.434Z,33.30
2018-06-19T02:31:34.476Z,32.40
2018-06-19T02:34:07.488Z,31.90
2018-06-19T02:36:40.435Z,31.30
2018-06-19T02:39:14.154Z,30.90
2018-06-19T02:41:47.383Z,30.50
2018-06-19T02:44:20.719Z,30.30
2018-06-19T02:46:53.774Z,30.00
2018-06-19T02:49:26.941Z,29.80
2018-06-19T02:52:00.066Z,29.40
2018-06-19T02:54:34.320Z,29.30
2018-06-19T02:57:08.086Z,29.10
2018-06-19T02:59:41.078Z,28.90
2018-06-19T03:02:13.946Z,28.80
2018-06-19T03:04:46.779Z,28.60
2018-06-19T03:07:19.790Z,28.50
2018-06-19T03:09:52.924Z,28.30
2018-06-19T03:12:25.757Z,28.00
2018-06-19T03:14:58.767Z,27.90
2018-06-19T03:17:32.514Z,27.80
2018-06-19T03:22:56.067Z,27.60
2018-06-19T03:28:19.497Z,27.40
2018-06-19T03:30:52.479Z,27.20
2018-06-19T03:33:25.645Z,27.10
2018-06-19T03:35:59.637Z,26.90
2018-06-19T03:38:32.671Z,26.70
2018-06-19T03:41:06.242Z,26.50
2018-06-19T03:43:39.253Z,26.40
2018-06-19T03:46:12.229Z,26.20
2018-06-19T03:48:45.400Z,26.10
2018-06-19T03:51:18.405Z,26.00
2018-06-19T03:53:53.529Z,25.80
2018-06-19T03:59:09.796Z,25.60
2018-06-19T04:01:43.255Z,25.40
2018-06-19T04:04:16.340Z,25.30
2018-06-19T04:06:50.178Z,25.00
2018-06-19T04:09:23.420Z,24.80
2018-06-19T04:12:00.463Z,24.80
2018-06-19T04:17:21.171Z,24.60
2018-06-19T04:22:35.053Z,24.40
2018-06-19T04:27:49.824Z,24.00
2018-06-19T04:33:06.118Z,23.90
2018-06-19T04:35:39.214Z,23.70
2018-06-19T04:38:12.299Z,23.60
2018-06-19T04:40:45.325Z,23.40
2018-06-19T04:43:19.188Z,23.30
2018-06-19T04:45:52.270Z,23.20
2018-06-19T04:48:25.410Z,23.00
2018-06-19T04:50:58.720Z,23.00
2018-06-19T04:53:31.863Z,22.80
2018-06-19T04:56:04.845Z,22.70
2018-06-19T04:58:37.849Z,22.60
2018-06-19T05:01:10.876Z,22.40
2018-06-19T05:03:43.997Z,22.30
2018-06-19T05:06:17.143Z,22.20
2018-06-19T05:08:50.215Z,22.10
2018-06-19T05:11:23.678Z,22.00
2018-06-19T05:13:56.834Z,21.90
2018-06-19T05:16:30.205Z,21.80
2018-06-19T05:19:03.500Z,21.70
2018-06-19T05:21:36.851Z,21.60
2018-06-19T05:24:10.381Z,21.50
2018-06-19T05:26:45.328Z,21.40
2018-06-19T05:29:18.636Z,21.30
2018-06-19T05:31:51.866Z,21.30
2018-06-19T05:34:25.700Z,21.20
2018-06-19T05:36:59.051Z,21.10
2018-06-19T05:39:35.079Z,21.10
2018-06-19T05:42:08.359Z,21.00
2018-06-19T05:44:41.631Z,20.90
2018-06-19T05:47:15.116Z,20.80
2018-06-19T05:49:50.753Z,20.80
2018-06-19T05:52:23.922Z,20.70
2018-06-19T05:54:56.848Z,20.60
2018-06-19T05:57:29.786Z,20.50
2018-06-19T06:00:07.805Z,20.50
2018-06-19T06:02:40.860Z,20.50
2018-06-19T06:05:13.836Z,20.50
2018-06-19T06:07:47.236Z,20.40
2018-06-19T06:10:20.296Z,20.40
2018-06-19T06:12:53.198Z,20.40
2018-06-19T06:15:26.305Z,20.40
2018-06-19T06:17:59.315Z,20.50
2018-06-19T06:20:32.356Z,20.40
2018-06-19T06:23:05.417Z,20.20
2018-06-19T06:25:38.370Z,20.20
2018-06-19T06:28:11.510Z,20.00
2018-06-19T06:30:44.451Z,19.90
2018-06-19T06:33:17.461Z,19.80
2018-06-19T06:35:51.533Z,19.80
2018-06-19T06:38:25.646Z,19.80
2018-06-19T06:40:59.701Z,19.70
2018-06-19T06:43:33.695Z,19.70
2018-06-19T06:46:06.896Z,19.60
2018-06-19T06:48:40.818Z,19.60
2018-06-19T06:51:15.190Z,19.50
2018-06-19T06:53:48.331Z,19.50
2018-06-19T06:56:21.737Z,19.40
2018-06-19T06:58:54.839Z,19.40
2018-06-19T07:01:27.855Z,19.30
2018-06-19T07:04:00.767Z,19.20
2018-06-19T07:06:34.318Z,19.20
2018-06-19T07:09:09.414Z,19.10
2018-06-19T07:11:42.420Z,19.10
2018-06-19T07:14:15.381Z,19.10
2018-06-19T07:16:48.655Z,19.00
2018-06-19T07:19:22.164Z,18.90
2018-06-19T07:21:55.180Z,18.90
2018-06-19T07:24:28.309Z,18.80
2018-06-19T07:27:01.214Z,18.70
2018-06-19T07:29:34.156Z,18.60
2018-06-19T07:32:07.054Z,18.60
2018-06-19T07:34:39.985Z,18.60
2018-06-19T07:37:13.116Z,18.50
2018-06-19T07:39:46.156Z,18.50
2018-06-19T07:42:19.155Z,18.40
2018-06-19T07:44:52.219Z,18.40
2018-06-19T14:35:37.239Z,16.00
2018-06-19T14:38:10.933Z,16.10
2018-06-19T14:40:47.852Z,16.10
2018-06-19T14:43:21.910Z,16.20
2018-06-19T14:45:55.043Z,16.60
2018-06-19T14:48:28.111Z,17.30
2018-06-19T14:51:01.289Z,18.10
2018-06-19T14:53:35.052Z,17.70
2018-06-19T14:56:08.329Z,17.80
2018-06-19T14:58:42.645Z,18.10
2018-06-19T15:01:15.839Z,18.70
2018-06-19T15:03:49.207Z,19.40
2018-06-19T15:06:22.454Z,19.50
2018-06-19T15:08:55.430Z,19.70
2018-06-19T15:11:28.630Z,19.80
2018-06-19T15:14:01.622Z,19.60
2018-06-19T15:16:34.966Z,20.40
2018-06-19T15:19:08.117Z,20.00
2018-06-19T15:21:41.232Z,20.10
2018-06-19T15:24:14.209Z,19.60
2018-06-19T15:26:47.481Z,19.50
2018-06-19T15:29:20.430Z,19.60
2018-06-19T15:31:53.448Z,19.50
2018-06-19T15:34:27.410Z,19.40
2018-06-19T15:37:00.507Z,19.10
2018-06-19T15:39:33.574Z,18.40
2018-06-19T15:42:06.489Z,18.40
2018-06-19T15:44:39.616Z,18.50
2018-06-19T15:47:12.692Z,18.60
2018-06-19T15:49:45.750Z,18.40
2018-06-19T15:52:18.761Z,18.20
2018-06-19T15:54:51.852Z,18.20
2018-06-19T15:57:24.982Z,18.40
2018-06-19T15:59:58.105Z,18.50
2018-06-19T16:02:31.219Z,18.60
2018-06-19T16:05:04.276Z,18.60
2018-06-19T16:07:41.251Z,18.60
2018-06-19T16:10:14.284Z,18.60
2018-06-19T16:12:47.410Z,18.50
2018-06-19T16:15:20.398Z,18.40
2018-06-19T16:17:53.269Z,18.40
2018-06-19T16:20:26.278Z,18.70
2018-06-19T16:22:59.275Z,18.80
2018-06-19T16:25:32.210Z,19.00
2018-06-19T16:28:05.243Z,19.00
2018-06-19T16:30:38.394Z,18.80
2018-06-19T16:33:11.406Z,18.90
2018-06-19T16:35:44.470Z,18.90
2018-06-19T16:38:17.529Z,19.00
2018-06-19T16:40:50.805Z,19.00
2018-06-19T16:43:24.178Z,19.00
2018-06-19T16:45:57.252Z,19.00
2018-06-19T16:48:30.295Z,19.10
2018-06-19T16:51:03.360Z,19.20
2018-06-19T16:53:36.313Z,19.20
2018-06-19T16:56:09.306Z,19.30
2018-06-19T16:58:42.323Z,19.10
2018-06-19T17:01:15.288Z,19.20
2018-06-19T17:03:48.294Z,19.30
2018-06-19T17:06:21.237Z,19.40
2018-06-19T17:08:54.304Z,19.50
2018-06-19T17:11:27.401Z,19.70
2018-06-19T17:14:00.442Z,19.80
2018-06-19T17:16:33.559Z,19.80
2018-06-19T17:19:06.587Z,19.60
2018-06-19T17:21:39.693Z,19.80
2018-06-19T17:24:12.682Z,20.00
2018-06-19T17:26:45.667Z,19.70
2018-06-19T17:29:18.519Z,19.70
2018-06-19T17:31:51.484Z,19.70
2018-06-19T17:34:24.601Z,19.80
2018-06-19T17:36:57.794Z,20.00
2018-06-19T17:39:31.091Z,20.20
2018-06-19T17:42:04.198Z,20.40
2018-06-19T17:44:37.327Z,20.30
2018-06-19T17:47:11.277Z,20.30
2018-06-19T17:49:44.471Z,20.20
2018-06-19T17:52:17.568Z,20.40
2018-06-19T17:54:50.531Z,20.60
2018-06-19T17:57:23.466Z,20.80
2018-06-19T17:59:56.465Z,20.90
2018-06-19T18:02:29.514Z,21.10
2018-06-19T18:05:02.533Z,21.20
2018-06-19T18:07:35.597Z,21.40
2018-06-19T18:10:08.758Z,21.50
2018-06-19T18:12:41.704Z,21.20
2018-06-19T18:15:14.611Z,21.10
2018-06-19T18:17:47.546Z,21.20
2018-06-19T18:20:20.667Z,21.40
2018-06-19T18:22:53.811Z,21.40
2018-06-19T18:25:26.721Z,21.50
2018-06-19T18:27:59.699Z,21.70
2018-06-19T18:30:32.780Z,21.80
2018-06-19T18:33:05.833Z,21.80
2018-06-19T18:35:38.890Z,21.80
2018-06-19T18:38:11.883Z,21.90
2018-06-19T18:40:44.922Z,21.90
2018-06-19T18:43:17.921Z,22.20
2018-06-19T18:45:51.008Z,22.20
2018-06-19T18:48:24.009Z,22.20
2018-06-19T18:50:56.937Z,22.30
2018-06-19T18:53:30.175Z,22.50
2018-06-19T18:56:03.206Z,22.50
2018-06-19T18:58:36.409Z,22.30
2018-06-19T19:01:09.465Z,22.30
2018-06-19T19:03:44.152Z,22.20
2018-06-19T19:06:17.419Z,22.50
2018-06-19T19:08:50.491Z,22.60
2018-06-19T19:11:23.621Z,22.70
2018-06-19T19:13:56.657Z,22.70
2018-06-19T19:16:33.691Z,22.90
2018-06-19T19:19:08.917Z,22.80
2018-06-19T19:21:42.003Z,23.00
2018-06-19T19:24:15.130Z,23.00
2018-06-19T19:26:52.183Z,22.90
2018-06-19T19:29:29.387Z,22.90
2018-06-19T19:32:02.361Z,22.90
2018-06-19T19:34:35.502Z,22.90
2018-06-19T19:37:12.718Z,22.90
2018-06-19T19:39:45.782Z,23.00
2018-06-19T19:42:18.769Z,23.10
2018-06-19T19:44:51.891Z,23.40
2018-06-19T19:47:29.027Z,23.40
2018-06-19T19:50:02.283Z,23.50
2018-06-19T19:52:35.282Z,23.60
2018-06-19T19:55:08.444Z,23.70
2018-06-19T19:57:45.710Z,23.70
2018-06-19T20:00:21.659Z,23.60
2018-06-19T20:02:54.736Z,23.90
2018-06-19T20:05:28.471Z,23.90
2018-06-19T20:08:01.452Z,23.90
2018-06-19T20:10:34.328Z,23.90
2018-06-19T20:13:07.344Z,24.10
2018-06-19T20:15:40.543Z,24.10
2018-06-19T20:18:13.472Z,24.20
2018-06-19T20:20:47.081Z,24.20
2018-06-19T20:23:20.059Z,24.30
2018-06-19T20:25:53.065Z,24.40
2018-06-19T20:28:26.153Z,24.70
2018-06-19T20:30:59.418Z,24.50
2018-06-19T20:33:32.469Z,24.50
2018-06-19T20:36:05.686Z,24.50
2018-06-19T20:38:38.747Z,24.70
2018-06-19T20:41:11.837Z,24.80
2018-06-19T20:43:44.934Z,24.80
2018-06-19T20:46:18.055Z,25.00
2018-06-19T20:48:50.996Z,25.10
2018-06-19T20:51:23.964Z,25.10
2018-06-19T20:53:57.068Z,25.20
2018-06-19T20:56:30.666Z,25.40
2018-06-19T20:59:03.631Z,25.60
2018-06-19T21:01:36.598Z,25.60
2018-06-19T21:04:09.548Z,25.50
2018-06-19T21:06:43.449Z,25.70
2018-06-19T21:09:16.540Z,25.90
2018-06-19T21:11:49.589Z,25.80
2018-06-19T21:14:22.583Z,25.70
2018-06-19T21:16:55.490Z,25.70
2018-06-19T21:19:28.517Z,25.90
2018-06-19T21:22:01.567Z,26.00
2018-06-19T21:24:34.598Z,26.10
2018-06-19T21:27:07.568Z,26.00
2018-06-19T21:29:40.872Z,25.90
2018-06-19T21:32:13.816Z,26.00
2018-06-19T21:34:46.896Z,26.20
2018-06-19T21:37:19.799Z,26.40
2018-06-19T21:39:52.782Z,26.40
2018-06-19T21:42:25.671Z,26.60
2018-06-19T21:44:58.764Z,26.70
2018-06-19T21:47:32.006Z,26.80
2018-06-19T21:50:04.949Z,26.90
2018-06-19T21:52:37.914Z,27.10
2018-06-19T21:55:10.944Z,27.10
2018-06-19T21:57:43.988Z,27.10
2018-06-19T22:00:17.046Z,27.20
2018-06-19T22:02:50.084Z,27.50
2018-06-19T22:05:23.121Z,27.30
2018-06-19T22:07:56.471Z,27.40
2018-06-19T22:10:29.580Z,27.70
2018-06-19T22:13:03.614Z,27.60
2018-06-19T22:15:37.152Z,28.00
2018-06-19T22:18:12.827Z,28.00
2018-06-19T22:20:46.321Z,28.30
2018-06-19T22:23:19.291Z,28.30
2018-06-19T22:25:53.483Z,28.10
2018-06-19T22:28:28.429Z,28.40
2018-06-19T22:31:01.530Z,28.70
2018-06-19T22:33:34.660Z,28.70
2018-06-19T22:36:07.732Z,28.40
2018-06-19T22:38:43.996Z,28.00
2018-06-19T22:41:17.032Z,28.00
2018-06-19T22:43:50.058Z,28.30
2018-06-19T22:46:23.278Z,28.60
2018-06-19T22:48:56.337Z,28.80
2018-06-19T22:51:30.762Z,29.10
2018-06-19T22:54:04.081Z,29.20
2018-06-19T22:56:37.254Z,29.20
2018-06-19T22:59:10.341Z,29.20
2018-06-19T23:01:43.555Z,29.30
2018-06-19T23:04:16.652Z,29.50
2018-06-19T23:06:51.404Z,29.40
2018-06-19T23:09:24.507Z,29.40
2018-06-19T23:11:59.780Z,29.80
2018-06-19T23:14:34.074Z,30.00
2018-06-19T23:17:07.286Z,30.10
2018-06-19T23:19:40.374Z,30.00
2018-06-19T23:22:13.554Z,29.80
2018-06-19T23:24:46.655Z,29.60
2018-06-19T23:27:19.658Z,29.90
2018-06-19T23:29:52.705Z,30.00
2018-06-19T23:32:25.883Z,30.30
2018-06-19T23:34:58.999Z,30.30
2018-06-19T23:37:31.990Z,30.40
2018-06-19T23:40:05.111Z,30.70
2018-06-19T23:42:38.158Z,30.90
2018-06-19T23:45:11.228Z,30.70
2018-06-19T23:47:45.745Z,30.90
2018-06-19T23:50:18.718Z,31.00
2018-06-19T23:52:51.761Z,30.80
2018-06-19T23:55:24.731Z,30.70
2018-06-19T23:57:57.658Z,30.60
